createdAt,value
2019-05-26T00:05:01.975Z,5.80
2019-05-26T00:10:08.255Z,5.32
2019-05-26T00:15:17.833Z,4.65
2019-05-26T00:20:24.022Z,5.87
2019-05-26T00:25:30.614Z,6.70
2019-05-26T00:30:37.157Z,6.81
2019-05-26T00:35:43.390Z,5.78
2019-05-26T00:40:49.951Z,6.55
2019-05-26T00:45:56.105Z,5.90
2019-05-26T00:51:06.918Z,5.42
2019-05-26T00:56:03.247Z,5.77
2019-05-26T01:01:19.712Z,10.65
2019-05-26T01:06:26.855Z,6.45
2019-05-26T01:11:34.056Z,7.68
2019-05-26T01:16:30.467Z,6.27
2019-05-26T01:21:36.842Z,6.90
2019-05-26T01:26:45.322Z,6.10
2019-05-26T01:31:51.954Z,6.42
2019-05-26T01:36:58.428Z,5.35
2019-05-26T01:42:15.119Z,6.62
2019-05-26T01:47:19.896Z,5.08
2019-05-26T01:52:27.296Z,5.09
2019-05-26T01:57:23.890Z,4.83
2019-05-26T02:02:30.425Z,5.62
2019-05-26T02:07:36.740Z,6.08
2019-05-26T02:12:43.442Z,4.73
2019-05-26T02:17:49.741Z,4.10
2019-05-26T02:22:56.083Z,5.47
2019-05-26T02:28:02.637Z,6.31
2019-05-26T02:33:09.071Z,5.97
2019-05-26T02:38:18.566Z,4.96
2019-05-26T02:43:28.127Z,5.37
2019-05-26T02:48:34.664Z,5.19
2019-05-26T02:53:41.461Z,5.77
2019-05-26T02:58:47.935Z,5.04
2019-05-26T03:03:54.399Z,6.07
2019-05-26T03:09:20.557Z,8.44
2019-05-26T03:14:07.129Z,7.66
2019-05-26T03:19:13.424Z,7.40
2019-05-26T03:24:19.810Z,7.05
2019-05-26T03:29:26.033Z,7.36
2019-05-26T03:34:32.689Z,7.04
2019-05-26T03:39:45.490Z,9.05
2019-05-26T03:44:43.351Z,7.62
2019-05-26T03:49:54.923Z,8.19
2019-05-26T03:54:53.298Z,9.18
2019-05-26T03:59:59.942Z,9.53
2019-05-26T04:05:06.403Z,10.83
2019-05-26T04:10:12.634Z,9.72
2019-05-26T04:15:19.106Z,10.32
2019-05-26T04:20:25.491Z,8.85
2019-05-26T04:25:37.213Z,9.85
2019-05-26T04:30:33.599Z,7.91
2019-05-26T04:35:40.694Z,10.16
2019-05-26T04:40:46.921Z,8.95
2019-05-26T04:45:53.273Z,9.36
2019-05-26T04:50:59.777Z,7.79
2019-05-26T04:56:06.268Z,6.85
2019-05-26T05:01:12.886Z,8.34
2019-05-26T05:06:20.377Z,9.19
2019-05-26T05:11:26.667Z,8.43
2019-05-26T05:16:32.913Z,7.60
2019-05-26T05:21:39.289Z,8.07
2019-05-26T05:26:45.468Z,7.19
2019-05-26T05:31:51.669Z,8.37
2019-05-26T05:36:57.922Z,8.00
2019-05-26T05:42:04.056Z,9.54
2019-05-26T05:47:10.432Z,9.69
2019-05-26T05:52:16.733Z,7.90
2019-05-26T05:57:23.015Z,8.35
2019-05-26T06:02:29.503Z,7.99
2019-05-26T06:07:37.316Z,10.30
2019-05-26T06:12:43.942Z,6.94
2019-05-26T06:17:50.333Z,8.30
2019-05-26T06:22:56.781Z,7.41
2019-05-26T06:28:03.132Z,9.33
2019-05-26T06:33:09.381Z,9.68
2019-05-26T06:38:15.675Z,9.40
2019-05-26T06:43:21.860Z,10.11
2019-05-26T06:48:28.331Z,10.10
2019-05-26T06:53:37.242Z,9.75
2019-05-26T06:58:43.994Z,10.96
2019-05-26T07:03:50.241Z,12.56
2019-05-26T07:08:56.834Z,10.49
2019-05-26T07:14:03.020Z,12.35
2019-05-26T07:19:09.144Z,12.79
2019-05-26T07:24:15.356Z,13.19
2019-05-26T07:29:38.327Z,12.96
2019-05-26T07:34:25.050Z,12.79
2019-05-26T07:39:33.216Z,13.54
2019-05-26T07:44:41.260Z,12.73
2019-05-26T07:49:48.216Z,12.80
2019-05-26T07:54:55.164Z,14.60
2019-05-26T08:00:02.720Z,13.54
2019-05-26T08:05:09.122Z,13.85
2019-05-26T08:10:15.516Z,14.27
2019-05-26T08:15:21.882Z,13.97
2019-05-26T08:20:28.309Z,13.72
2019-05-26T08:25:34.677Z,11.92
2019-05-26T08:30:40.953Z,11.70
2019-05-26T08:35:47.233Z,12.64
2019-05-26T08:40:53.652Z,13.28
2019-05-26T08:46:00.451Z,11.53
2019-05-26T08:51:06.729Z,12.95
2019-05-26T08:56:13.467Z,13.48
2019-05-26T09:01:22.847Z,11.06
2019-05-26T09:06:29.137Z,11.71
2019-05-26T09:11:43.627Z,14.02
2019-05-26T09:16:40.058Z,12.51
2019-05-26T09:21:47.651Z,13.06
2019-05-26T09:27:02.908Z,12.99
2019-05-26T09:32:00.174Z,12.28
2019-05-26T09:37:08.637Z,12.16
2019-05-26T09:42:17.460Z,12.16
2019-05-26T09:47:35.493Z,12.75
2019-05-26T09:52:33.043Z,13.73
2019-05-26T09:57:39.452Z,13.50
2019-05-26T10:02:53.968Z,15.07
2019-05-26T10:07:50.593Z,14.96
2019-05-26T10:12:56.797Z,16.59
2019-05-26T10:18:04.616Z,15.56
2019-05-26T10:23:14.372Z,16.14
2019-05-26T10:28:21.031Z,16.11
2019-05-26T10:33:27.912Z,13.64
2019-05-26T10:38:34.399Z,16.07
2019-05-26T10:43:48.848Z,17.36
2019-05-26T10:48:45.553Z,16.71
2019-05-26T10:54:00.675Z,15.56
2019-05-26T10:58:56.997Z,16.72
2019-05-26T11:04:06.081Z,18.55
2019-05-26T11:09:12.698Z,17.55
2019-05-26T11:14:27.280Z,21.10
2019-05-26T11:20:01.181Z,18.97
2019-05-26T11:24:42.110Z,18.44
2019-05-26T11:29:42.922Z,16.64
2019-05-26T11:35:02.455Z,17.76
2019-05-26T11:39:56.568Z,19.23
2019-05-26T11:44:37.904Z,16.95
2019-05-26T11:49:46.633Z,15.61
2019-05-26T11:54:48.858Z,15.65
2019-05-26T11:59:50.240Z,14.29
2019-05-26T12:04:46.872Z,14.25
2019-05-26T12:10:03.341Z,14.31
2019-05-26T12:15:06.942Z,14.70
2019-05-26T12:20:11.823Z,16.06
2019-05-26T12:25:08.157Z,15.75
2019-05-26T12:30:19.325Z,14.89
2019-05-26T12:40:22.396Z,14.02
2019-05-26T12:45:29.373Z,16.36
2019-05-26T12:50:42.862Z,17.12
2019-05-26T12:55:52.331Z,21.65
2019-05-26T13:01:06.770Z,13.86
2019-05-26T13:06:07.035Z,14.73
2019-05-26T13:11:01.164Z,11.85
2019-05-26T13:16:00.110Z,12.76
2019-05-26T13:21:12.571Z,12.06
2019-05-26T13:26:10.277Z,12.70
2019-05-26T13:31:29.622Z,12.49
2019-05-26T13:36:34.801Z,11.43
2019-05-26T13:41:38.087Z,12.42
2019-05-26T13:47:26.506Z,11.23
2019-05-26T13:51:50.541Z,12.01
2019-05-26T14:01:56.177Z,12.88
2019-05-26T14:06:54.452Z,11.86
2019-05-26T14:12:11.575Z,10.19
2019-05-26T14:17:12.023Z,12.04
2019-05-26T14:22:13.899Z,10.29
2019-05-26T14:27:22.606Z,8.93
2019-05-26T14:32:26.998Z,10.60
2019-05-26T14:37:23.548Z,8.02
2019-05-26T14:42:30.081Z,8.99
2019-05-26T14:47:36.577Z,6.98
2019-05-26T14:52:42.877Z,9.72
2019-05-26T14:57:49.509Z,11.21
2019-05-26T15:02:59.537Z,9.76
2019-05-26T15:07:56.497Z,12.74
2019-05-26T15:13:03.023Z,13.66
2019-05-26T15:18:14.571Z,10.70
2019-05-26T15:23:11.120Z,9.65
2019-05-26T15:28:17.922Z,12.76
2019-05-26T15:33:40.566Z,14.62
2019-05-26T15:38:42.528Z,10.23
2019-05-26T15:43:51.165Z,13.35
2019-05-26T15:48:40.591Z,9.69
2019-05-26T15:53:50.401Z,9.24
2019-05-26T15:58:56.989Z,10.17
2019-05-26T16:09:14.692Z,11.36
2019-05-26T16:14:23.121Z,11.44
2019-05-26T16:19:29.936Z,10.59
2019-05-26T16:24:36.939Z,10.55
2019-05-26T16:29:46.484Z,9.51
2019-05-26T16:34:43.771Z,9.19
2019-05-26T16:39:55.984Z,9.69
2019-05-26T16:45:01.933Z,10.02
2019-05-26T16:49:59.002Z,9.08
2019-05-26T16:55:12.558Z,8.95
2019-05-26T17:00:10.428Z,10.34
2019-05-26T17:05:20.787Z,10.44
2019-05-26T17:10:34.908Z,15.10
2019-05-26T17:15:34.440Z,13.80
2019-05-26T17:20:42.131Z,12.61
2019-05-26T17:25:38.434Z,12.71
2019-05-26T17:30:46.869Z,12.72
2019-05-26T17:35:54.299Z,12.02
2019-05-26T17:41:00.851Z,10.87
2019-05-26T17:46:09.842Z,19.39
2019-05-26T17:51:27.496Z,12.53
2019-05-26T17:56:23.859Z,11.73
2019-05-26T18:01:31.208Z,19.33
2019-05-26T18:06:37.675Z,14.99
2019-05-26T18:11:44.268Z,11.49
2019-05-26T18:16:50.436Z,11.96
2019-05-26T18:21:56.833Z,15.40
2019-05-26T18:27:03.421Z,15.15
2019-05-26T18:32:10.233Z,14.42
2019-05-26T18:37:16.753Z,14.53
2019-05-26T18:42:23.176Z,11.17
2019-05-26T18:47:29.418Z,12.84
2019-05-26T18:52:35.960Z,11.85
2019-05-26T18:57:42.395Z,12.45
2019-05-26T19:02:48.889Z,10.91
2019-05-26T19:07:55.348Z,6.94
2019-05-26T19:13:01.668Z,5.34
2019-05-26T19:18:19.473Z,5.51
2019-05-26T19:23:14.316Z,5.00
2019-05-26T19:28:29.990Z,7.26
2019-05-26T19:33:30.102Z,6.75
2019-05-26T19:38:26.533Z,4.60
2019-05-26T19:43:35.329Z,5.24
2019-05-26T19:48:41.865Z,4.81
2019-05-26T19:53:48.786Z,7.36
2019-05-26T19:58:55.573Z,5.67
2019-05-26T20:04:02.180Z,5.79
2019-05-26T20:09:09.790Z,6.44
2019-05-26T20:14:16.057Z,6.61
2019-05-26T20:19:22.611Z,7.10
2019-05-26T20:24:29.239Z,10.88
2019-05-26T20:29:35.701Z,11.36
2019-05-26T20:34:42.241Z,8.80
2019-05-26T20:39:48.709Z,9.12
2019-05-26T20:44:55.480Z,7.99
2019-05-26T20:50:01.682Z,9.08
2019-05-26T20:55:08.318Z,9.02
2019-05-26T21:00:15.108Z,9.13
2019-05-26T21:05:21.649Z,10.50
2019-05-26T21:10:28.009Z,11.07
2019-05-26T21:15:34.944Z,11.09
2019-05-26T21:20:41.383Z,11.72
2019-05-26T21:25:49.566Z,12.13
2019-05-26T21:30:55.834Z,12.44
2019-05-26T21:36:02.523Z,13.10
2019-05-26T21:41:12.074Z,13.70
2019-05-26T21:46:18.429Z,15.35
2019-05-26T21:51:25.984Z,15.19
2019-05-26T21:56:55.293Z,16.28
2019-05-26T22:01:45.871Z,16.11
2019-05-26T22:06:45.150Z,16.02
2019-05-26T22:11:51.574Z,14.97
2019-05-26T22:17:23.337Z,14.60
2019-05-26T22:21:59.859Z,15.15
2019-05-26T22:27:08.996Z,10.01
2019-05-26T22:32:15.273Z,10.09
2019-05-26T22:37:25.806Z,8.57
2019-05-26T22:42:22.234Z,7.81
2019-05-26T22:47:30.620Z,9.12
2019-05-26T22:52:36.911Z,7.64
2019-05-26T22:57:43.229Z,6.47
2019-05-26T23:07:59.330Z,6.47
2019-05-26T23:13:05.771Z,7.29
2019-05-26T23:18:12.756Z,5.55
2019-05-26T23:23:19.160Z,6.15
2019-05-26T23:28:25.945Z,5.92
2019-05-26T23:33:32.546Z,4.69
2019-05-26T23:38:39.261Z,5.32
2019-05-26T23:43:45.771Z,5.65
2019-05-26T23:48:52.177Z,5.37
2019-05-26T23:53:58.733Z,5.51
2019-05-26T23:59:05.325Z,6.54
